Time;durP1;ratioP1;P1;durP2;ratioP2;P2;SDS_P1;SDS_P2;PMS_P1;PMS_P2;Temp;Humidity;BMP_temperature;BMP_pressure;BME280_temperature;BME280_humidity;BME280_pressure;Samples;Min_cycle;Max_cycle;Signal;HPM_P1;HPM_P2
2021/07/27 00:01:48;;;;;;;89.78;46.85;;;;;;;;;;5024556;28;20453;-67
2021/07/27 00:04:17;;;;;;;83.90;48.40;;;;;;;;;;5020991;28;20095;-67
2021/07/27 00:06:43;;;;;;;95.18;49.90;;;;;;;;;;5017820;28;20501;-67
2021/07/27 00:09:10;;;;;;;102.60;52.10;;;;;;;;;;5025208;28;20132;-67
2021/07/27 00:11:36;;;;;;;90.65;49.17;;;;;;;;;;5027528;28;20067;-67
2021/07/27 00:14:02;;;;;;;90.68;50.17;;;;;;;;;;5023076;28;20425;-67
2021/07/27 00:16:28;;;;;;;95.43;48.72;;;;;;;;;;5023576;28;20038;-66
2021/07/27 00:18:54;;;;;;;90.03;49.03;;;;;;;;;;5020880;28;20489;-67
2021/07/27 00:21:20;;;;;;;75.80;43.75;;;;;;;;;;5022487;28;20103;-66
2021/07/27 00:23:47;;;;;;;63.60;38.10;;;;;;;;;;5020976;28;20111;-67
2021/07/27 00:26:14;;;;;;;53.83;34.28;;;;;;;;;;5020301;28;20096;-67
2021/07/27 00:28:40;;;;;;;46.80;28.65;;;;;;;;;;5025219;28;20446;-67
2021/07/27 00:31:08;;;;;;;33.58;21.90;;;;;;;;;;5020806;28;20054;-67
2021/07/27 00:33:34;;;;;;;26.17;18.75;;;;;;;;;;5024416;28;20053;-67
2021/07/27 00:36:02;;;;;;;24.58;17.55;;;;;;;;;;5023209;28;20357;-67
2021/07/27 00:38:29;;;;;;;24.20;16.45;;;;;;;;;;5026850;28;20178;-67
2021/07/27 00:40:55;;;;;;;15.65;12.82;;;;;;;;;;5026999;28;20041;-67
2021/07/27 00:43:22;;;;;;;18.27;12.02;;;;;;;;;;5020559;28;20057;-67
2021/07/27 00:45:48;;;;;;;15.40;11.52;;;;;;;;;;5026454;28;20045;-67
2021/07/27 00:48:15;;;;;;;12.98;10.75;;;;;;;;;;5026420;28;20041;-67
2021/07/27 00:50:42;;;;;;;17.83;10.35;;;;;;;;;;5023159;28;20145;-67
2021/07/27 00:53:08;;;;;;;11.82;9.23;;;;;;;;;;5025709;28;20396;-67
2021/07/27 00:55:34;;;;;;;13.85;9.90;;;;;;;;;;5021998;28;20045;-67
2021/07/27 00:58:01;;;;;;;13.50;9.15;;;;;;;;;;5022813;28;20095;-66
2021/07/27 01:00:28;;;;;;;13.48;7.45;;;;;;;;;;5023792;28;20045;-67
2021/07/27 01:02:54;;;;;;;11.43;7.03;;;;;;;;;;5017630;28;20074;-67
2021/07/27 01:05:20;;;;;;;12.02;8.00;;;;;;;;;;5021371;28;20099;-67
2021/07/27 01:07:46;;;;;;;12.25;6.30;;;;;;;;;;5019955;28;20045;-67
2021/07/27 01:10:14;;;;;;;11.13;6.00;;;;;;;;;;5024642;28;20049;-67
2021/07/27 01:12:41;;;;;;;8.73;5.47;;;;;;;;;;5019085;28;20099;-67
2021/07/27 01:15:08;;;;;;;7.82;5.25;;;;;;;;;;5022051;28;20109;-67
2021/07/27 01:17:34;;;;;;;10.05;5.18;;;;;;;;;;5023759;28;20061;-67
2021/07/27 01:20:18;;;;;;;8.52;4.80;;;;;;;;;;5018672;28;20054;-67
2021/07/27 01:39:28;;;;;;;13.95;6.70;;;;;;;;;;5026335;28;20065;-67
2021/07/27 01:42:05;;;;;;;22.00;7.78;;;;;;;;;;5029944;28;20053;-67
2021/07/27 01:44:33;;;;;;;13.55;8.07;;;;;;;;;;5023658;28;20509;-67
2021/07/27 01:46:59;;;;;;;11.57;7.82;;;;;;;;;;5026852;28;20045;-67
2021/07/27 01:49:25;;;;;;;13.07;7.88;;;;;;;;;;5027286;28;20091;-67
2021/07/27 01:51:53;;;;;;;12.18;7.40;;;;;;;;;;5029671;28;20049;-67
2021/07/27 01:54:28;;;;;;;14.05;7.63;;;;;;;;;;5026680;28;20110;-67
2021/07/27 01:56:55;;;;;;;11.30;6.43;;;;;;;;;;5023614;28;20048;-67
2021/07/27 01:59:21;;;;;;;15.02;7.47;;;;;;;;;;5024960;28;20124;-67
2021/07/27 02:01:48;;;;;;;12.25;6.10;;;;;;;;;;5024478;28;20130;-67
2021/07/27 02:04:14;;;;;;;16.13;6.70;;;;;;;;;;5024721;28;20095;-67
2021/07/27 02:06:41;;;;;;;10.70;6.78;;;;;;;;;;5023954;28;20089;-67
2021/07/27 02:09:08;;;;;;;10.25;5.93;;;;;;;;;;5021567;28;20483;-67
2021/07/27 02:11:40;;;;;;;14.18;6.65;;;;;;;;;;5021329;28;20137;-68
2021/07/27 02:14:06;;;;;;;17.15;6.28;;;;;;;;;;5027446;28;20053;-67
2021/07/27 02:16:36;;;;;;;14.48;6.35;;;;;;;;;;5023986;28;20121;-67
2021/07/27 02:19:04;;;;;;;11.07;5.10;;;;;;;;;;5026858;28;20041;-67
2021/07/27 02:21:30;;;;;;;15.93;5.75;;;;;;;;;;5021318;28;20068;-67
2021/07/27 02:23:59;;;;;;;17.48;6.50;;;;;;;;;;5024039;28;20045;-67
2021/07/27 02:26:26;;;;;;;15.45;6.88;;;;;;;;;;5026896;28;20049;-67
2021/07/27 02:28:52;;;;;;;25.55;7.30;;;;;;;;;;5025780;28;20199;-67
2021/07/27 02:31:26;;;;;;;19.83;7.78;;;;;;;;;;5026704;28;20465;-67
2021/07/27 02:33:53;;;;;;;18.83;7.43;;;;;;;;;;5027589;28;20124;-67
2021/07/27 02:36:19;;;;;;;19.02;8.93;;;;;;;;;;5025544;28;20095;-67
2021/07/27 02:38:47;;;;;;;17.83;10.13;;;;;;;;;;5022742;28;20041;-67
2021/07/27 02:41:13;;;;;;;25.00;10.73;;;;;;;;;;5022543;28;20034;-67
2021/07/27 02:43:39;;;;;;;21.38;10.90;;;;;;;;;;5025743;28;20049;-67
2021/07/27 02:46:06;;;;;;;25.25;13.38;;;;;;;;;;5024823;28;20466;-66
2021/07/27 02:48:34;;;;;;;28.55;16.65;;;;;;;;;;5024277;28;20425;-67
2021/07/27 02:51:01;;;;;;;41.55;23.52;;;;;;;;;;5027519;28;20536;-67
2021/07/27 02:53:30;;;;;;;41.67;23.27;;;;;;;;;;5023954;28;20115;-67
2021/07/27 02:55:58;;;;;;;43.40;24.85;;;;;;;;;;5027686;28;20048;-67
2021/07/27 02:58:24;;;;;;;46.08;25.90;;;;;;;;;;5025953;28;20460;-67
2021/07/27 03:00:50;;;;;;;41.13;25.27;;;;;;;;;;5024464;28;20064;-67
2021/07/27 03:03:16;;;;;;;46.50;27.17;;;;;;;;;;5026701;28;20050;-67
2021/07/27 03:05:43;;;;;;;43.45;26.13;;;;;;;;;;5020943;28;20046;-67
2021/07/27 03:08:17;;;;;;;47.95;26.63;;;;;;;;;;5025572;28;20064;-67
2021/07/27 03:10:44;;;;;;;42.20;25.23;;;;;;;;;;5021064;28;20061;-67
2021/07/27 03:13:10;;;;;;;44.55;25.70;;;;;;;;;;5024495;28;20045;-67
2021/07/27 03:15:36;;;;;;;38.63;24.27;;;;;;;;;;5022715;28;20139;-67
2021/07/27 03:18:02;;;;;;;42.80;25.02;;;;;;;;;;5024573;28;20037;-67
2021/07/27 03:20:31;;;;;;;36.50;22.95;;;;;;;;;;5026831;28;20041;-67
2021/07/27 03:22:57;;;;;;;38.47;21.88;;;;;;;;;;5024528;28;20052;-67
2021/07/27 03:25:24;;;;;;;34.38;22.15;;;;;;;;;;5027085;28;20057;-67
2021/07/27 03:27:51;;;;;;;36.75;23.67;;;;;;;;;;5028648;28;20042;-67
2021/07/27 03:30:18;;;;;;;29.92;20.80;;;;;;;;;;5022133;28;20046;-67
2021/07/27 03:32:46;;;;;;;30.55;21.35;;;;;;;;;;5021895;28;20038;-67
2021/07/27 03:35:14;;;;;;;31.83;20.20;;;;;;;;;;5022552;28;20045;-67
2021/07/27 03:37:40;;;;;;;33.85;21.60;;;;;;;;;;5021253;28;20049;-67
2021/07/27 03:40:06;;;;;;;38.63;22.88;;;;;;;;;;5023956;28;20048;-67
2021/07/27 03:42:33;;;;;;;25.30;18.75;;;;;;;;;;5017981;28;20471;-67
2021/07/27 03:45:00;;;;;;;33.70;19.90;;;;;;;;;;5023348;28;20033;-67
2021/07/27 03:47:27;;;;;;;31.60;20.30;;;;;;;;;;5022619;28;20057;-67
2021/07/27 03:49:54;;;;;;;30.33;19.77;;;;;;;;;;5020656;28;20045;-67
2021/07/27 03:52:20;;;;;;;30.58;19.10;;;;;;;;;;5023655;28;20046;-67
2021/07/27 03:54:47;;;;;;;33.88;18.88;;;;;;;;;;5022861;28;20072;-66
2021/07/27 03:57:13;;;;;;;32.97;20.30;;;;;;;;;;5019301;28;20577;-67
2021/07/27 03:59:39;;;;;;;31.13;19.95;;;;;;;;;;5025724;28;20081;-67
2021/07/27 04:02:06;;;;;;;35.65;19.48;;;;;;;;;;5027241;28;20374;-66
2021/07/27 04:04:34;;;;;;;32.72;20.00;;;;;;;;;;5023559;28;20103;-67
2021/07/27 04:07:00;;;;;;;35.08;20.35;;;;;;;;;;5022825;28;20107;-67
2021/07/27 04:09:28;;;;;;;25.70;17.02;;;;;;;;;;5025487;28;20056;-67
2021/07/27 04:11:54;;;;;;;20.67;16.38;;;;;;;;;;5024213;28;20478;-67
2021/07/27 04:14:22;;;;;;;24.23;16.13;;;;;;;;;;5022669;28;20141;-67
2021/07/27 04:16:48;;;;;;;28.85;16.27;;;;;;;;;;5026058;28;20068;-67
2021/07/27 04:19:14;;;;;;;25.45;17.65;;;;;;;;;;5024991;28;20054;-67
2021/07/27 04:21:42;;;;;;;33.50;20.05;;;;;;;;;;5022276;28;20046;-67
2021/07/27 04:24:17;;;;;;;34.85;20.75;;;;;;;;;;5024241;28;20044;-67
2021/07/27 04:26:43;;;;;;;35.03;22.98;;;;;;;;;;5024631;28;20053;-67
2021/07/27 04:29:14;;;;;;;43.17;24.88;;;;;;;;;;5023256;28;20095;-67
2021/07/27 04:31:41;;;;;;;39.92;24.45;;;;;;;;;;5024203;28;20430;-67
2021/07/27 04:34:07;;;;;;;31.77;22.95;;;;;;;;;;5026794;28;20220;-67
2021/07/27 04:36:33;;;;;;;37.00;23.95;;;;;;;;;;5023886;28;20121;-66
2021/07/27 04:39:00;;;;;;;36.85;21.75;;;;;;;;;;5024623;28;20128;-67
2021/07/27 04:41:27;;;;;;;30.60;20.40;;;;;;;;;;5026841;28;20038;-67
2021/07/27 04:43:54;;;;;;;32.75;21.73;;;;;;;;;;5024330;28;20045;-67
2021/07/27 04:46:20;;;;;;;32.45;21.50;;;;;;;;;;5021538;28;20543;-67
2021/07/27 04:48:47;;;;;;;38.58;23.70;;;;;;;;;;5018683;28;20046;-67
2021/07/27 04:51:13;;;;;;;36.50;23.05;;;;;;;;;;5025272;28;20095;-67
2021/07/27 04:53:41;;;;;;;38.38;24.10;;;;;;;;;;5024006;28;20060;-67
2021/07/27 04:56:07;;;;;;;34.05;23.20;;;;;;;;;;5023767;28;20041;-67
2021/07/27 04:58:33;;;;;;;32.97;21.80;;;;;;;;;;5015357;28;20057;-67
2021/07/27 05:01:01;;;;;;;38.05;23.85;;;;;;;;;;5019683;28;20175;-67
2021/07/27 05:03:28;;;;;;;35.47;23.52;;;;;;;;;;5020451;28;20065;-67
2021/07/27 05:05:55;;;;;;;40.60;24.40;;;;;;;;;;5020651;28;20124;-67
2021/07/27 05:08:21;;;;;;;32.75;21.92;;;;;;;;;;5020744;28;20576;-67
2021/07/27 05:10:47;;;;;;;34.17;22.52;;;;;;;;;;5022382;28;20038;-69
2021/07/27 05:13:13;;;;;;;34.95;22.67;;;;;;;;;;5018765;28;20412;-67
2021/07/27 05:15:40;;;;;;;43.33;23.27;;;;;;;;;;5016030;28;20045;-67
2021/07/27 05:18:06;;;;;;;34.70;22.60;;;;;;;;;;5016727;28;20049;-67
2021/07/27 05:20:32;;;;;;;34.17;22.08;;;;;;;;;;5011914;28;20046;-67
2021/07/27 05:23:00;;;;;;;32.00;22.00;;;;;;;;;;5015833;28;20048;-67
2021/07/27 05:25:26;;;;;;;29.10;21.23;;;;;;;;;;5018578;28;20159;-67
2021/07/27 05:27:52;;;;;;;33.97;22.60;;;;;;;;;;5024157;28;20049;-67
2021/07/27 05:30:20;;;;;;;32.47;21.88;;;;;;;;;;5018226;28;20046;-67
2021/07/27 05:32:46;;;;;;;29.95;20.15;;;;;;;;;;5021734;28;20038;-67
2021/07/27 05:35:14;;;;;;;26.42;19.48;;;;;;;;;;5024142;28;20057;-67
2021/07/27 05:37:41;;;;;;;28.60;18.75;;;;;;;;;;5020238;28;20132;-68
2021/07/27 05:40:07;;;;;;;29.08;19.13;;;;;;;;;;5021731;28;20049;-67
2021/07/27 05:42:33;;;;;;;23.65;18.38;;;;;;;;;;5023592;28;20129;-67
2021/07/27 05:45:00;;;;;;;25.75;18.52;;;;;;;;;;5024191;28;20045;-68
2021/07/27 05:47:26;;;;;;;29.77;19.50;;;;;;;;;;5018267;28;20558;-68
2021/07/27 05:49:53;;;;;;;29.15;19.65;;;;;;;;;;5022239;28;20045;-67
2021/07/27 05:52:19;;;;;;;30.60;20.05;;;;;;;;;;5014000;28;20045;-68
2021/07/27 05:54:45;;;;;;;26.75;19.20;;;;;;;;;;5022297;28;20049;-67
2021/07/27 05:57:12;;;;;;;32.38;20.15;;;;;;;;;;5024846;28;20155;-67
2021/07/27 05:59:40;;;;;;;27.83;20.65;;;;;;;;;;5021981;28;20373;-67
2021/07/27 06:02:07;;;;;;;29.75;19.73;;;;;;;;;;5024774;28;20038;-67
2021/07/27 06:04:33;;;;;;;28.80;20.33;;;;;;;;;;5021091;28;20080;-67
2021/07/27 06:06:59;;;;;;;32.70;20.08;;;;;;;;;;5022638;28;20128;-67
2021/07/27 06:09:26;;;;;;;36.15;22.33;;;;;;;;;;5022164;28;20071;-69
2021/07/27 06:11:52;;;;;;;29.27;20.88;;;;;;;;;;5022247;28;20072;-67
2021/07/27 06:14:18;;;;;;;35.40;21.80;;;;;;;;;;5024832;28;20064;-67
2021/07/27 06:16:44;;;;;;;32.20;20.63;;;;;;;;;;5023994;28;20400;-68
2021/07/27 06:19:11;;;;;;;36.00;22.85;;;;;;;;;;5013949;28;20505;-68
2021/07/27 06:21:40;;;;;;;33.92;22.35;;;;;;;;;;5024443;28;20095;-67
2021/07/27 06:24:06;;;;;;;32.80;22.65;;;;;;;;;;5023542;28;20148;-67
2021/07/27 06:26:32;;;;;;;31.85;22.55;;;;;;;;;;5023767;28;20172;-68
2021/07/27 06:29:01;;;;;;;31.40;22.08;;;;;;;;;;5027316;28;20116;-67
2021/07/27 06:31:27;;;;;;;34.40;23.98;;;;;;;;;;5023851;28;20046;-68
2021/07/27 06:33:53;;;;;;;31.35;23.48;;;;;;;;;;5024384;28;20151;-68
2021/07/27 06:36:20;;;;;;;34.65;22.83;;;;;;;;;;5020082;28;20133;-68
2021/07/27 06:38:46;;;;;;;33.90;22.70;;;;;;;;;;5024266;28;20485;-67
2021/07/27 06:41:12;;;;;;;28.98;21.52;;;;;;;;;;5019926;28;20144;-67
2021/07/27 06:43:39;;;;;;;31.75;22.05;;;;;;;;;;5022870;28;20041;-67
2021/07/27 06:46:06;;;;;;;36.75;22.63;;;;;;;;;;5017512;28;20120;-66
2021/07/27 06:48:33;;;;;;;34.72;23.02;;;;;;;;;;5016798;28;20053;-67
2021/07/27 06:51:07;;;;;;;37.78;24.50;;;;;;;;;;5020215;28;20046;-66
2021/07/27 06:53:33;;;;;;;34.15;23.83;;;;;;;;;;5017555;28;20045;-67
2021/07/27 06:56:00;;;;;;;39.53;25.38;;;;;;;;;;5021490;28;20049;-67
2021/07/27 06:58:26;;;;;;;38.65;26.70;;;;;;;;;;5021966;28;20064;-67
2021/07/27 07:00:52;;;;;;;42.67;27.55;;;;;;;;;;5020067;28;20053;-67
2021/07/27 07:03:18;;;;;;;41.50;28.35;;;;;;;;;;5027352;28;20037;-67
2021/07/27 07:05:44;;;;;;;48.28;29.33;;;;;;;;;;5016187;28;20045;-67
2021/07/27 07:08:11;;;;;;;45.85;30.67;;;;;;;;;;5018735;28;20058;-67
2021/07/27 07:10:38;;;;;;;49.00;30.40;;;;;;;;;;5016348;28;20053;-67
2021/07/27 07:13:04;;;;;;;48.00;31.80;;;;;;;;;;5019456;28;20485;-67
2021/07/27 07:15:30;;;;;;;46.78;31.42;;;;;;;;;;5014979;28;20128;-67
2021/07/27 07:17:57;;;;;;;49.00;32.92;;;;;;;;;;5014898;28;20111;-67
2021/07/27 07:20:24;;;;;;;49.88;32.53;;;;;;;;;;5019089;28;20072;-67
2021/07/27 07:22:50;;;;;;;52.58;34.08;;;;;;;;;;5023639;28;20066;-67
2021/07/27 07:25:16;;;;;;;54.00;35.60;;;;;;;;;;5019673;28;20061;-67
2021/07/27 07:27:42;;;;;;;55.20;35.45;;;;;;;;;;5018630;28;20050;-67
2021/07/27 07:30:09;;;;;;;53.75;36.67;;;;;;;;;;5013392;28;20545;-67
2021/07/27 07:32:36;;;;;;;48.28;32.83;;;;;;;;;;5025890;28;20064;-67
2021/07/27 07:35:04;;;;;;;51.83;34.92;;;;;;;;;;5019902;28;20103;-67
2021/07/27 07:37:30;;;;;;;50.03;33.45;;;;;;;;;;5023570;28;20396;-67
2021/07/27 07:39:56;;;;;;;48.03;32.22;;;;;;;;;;5025270;28;20080;-67
2021/07/27 07:42:23;;;;;;;44.70;32.97;;;;;;;;;;5020706;28;20408;-67
2021/07/27 07:44:49;;;;;;;52.70;35.67;;;;;;;;;;5018905;28;20137;-67
2021/07/27 07:47:15;;;;;;;45.78;31.55;;;;;;;;;;5024835;28;20071;-67
2021/07/27 07:49:41;;;;;;;47.72;33.38;;;;;;;;;;5022669;28;20050;-67
2021/07/27 07:52:08;;;;;;;53.53;34.80;;;;;;;;;;5021934;28;20045;-68
2021/07/27 07:54:35;;;;;;;52.25;35.67;;;;;;;;;;5017581;28;20045;-68
2021/07/27 07:57:01;;;;;;;47.33;35.38;;;;;;;;;;5028254;28;20061;-67
2021/07/27 07:59:27;;;;;;;53.30;36.97;;;;;;;;;;5020228;28;20064;-67
2021/07/27 08:01:58;;;;;;;52.00;37.10;;;;;;;;;;5022806;28;20069;-67
2021/07/27 08:04:25;;;;;;;47.60;35.20;;;;;;;;;;5026745;28;20057;-67
2021/07/27 08:06:51;;;;;;;50.55;36.05;;;;;;;;;;5026900;28;20041;-67
2021/07/27 08:09:18;;;;;;;52.30;38.58;;;;;;;;;;5020868;28;20073;-67
2021/07/27 08:11:44;;;;;;;53.70;36.53;;;;;;;;;;5029357;28;20072;-67
2021/07/27 08:14:11;;;;;;;49.10;37.13;;;;;;;;;;5028626;28;20057;-67
2021/07/27 08:16:37;;;;;;;51.95;36.50;;;;;;;;;;5021365;28;20118;-67
2021/07/27 08:19:04;;;;;;;54.50;39.47;;;;;;;;;;5023136;28;20528;-67
2021/07/27 08:21:30;;;;;;;61.78;41.92;;;;;;;;;;5022502;28;20055;-67
2021/07/27 08:23:57;;;;;;;66.97;45.03;;;;;;;;;;5023915;28;20048;-67
2021/07/27 08:26:23;;;;;;;71.57;47.20;;;;;;;;;;5021666;28;20072;-67
2021/07/27 08:28:49;;;;;;;78.38;48.65;;;;;;;;;;5025599;28;20052;-67
2021/07/27 08:31:16;;;;;;;68.85;46.58;;;;;;;;;;5022548;28;20147;-68
2021/07/27 08:33:42;;;;;;;78.32;47.33;;;;;;;;;;5017893;28;20124;-68
2021/07/27 08:36:09;;;;;;;71.13;49.08;;;;;;;;;;5022844;28;20184;-68
2021/07/27 08:38:35;;;;;;;65.78;43.85;;;;;;;;;;5025000;28;20048;-68
2021/07/27 08:41:04;;;;;;;66.20;44.53;;;;;;;;;;5022288;28;20045;-67
2021/07/27 08:43:30;;;;;;;67.28;47.00;;;;;;;;;;5020401;28;21330;-68
2021/07/27 08:45:57;;;;;;;66.93;46.33;;;;;;;;;;5020374;28;20052;-68
2021/07/27 08:48:23;;;;;;;67.53;44.85;;;;;;;;;;5017825;28;20122;-68
2021/07/27 08:50:50;;;;;;;67.28;45.97;;;;;;;;;;5018243;28;20060;-68
2021/07/27 08:53:17;;;;;;;72.10;49.75;;;;;;;;;;5022545;28;20049;-69
2021/07/27 08:55:43;;;;;;;55.65;44.08;;;;;;;;;;5028835;28;20053;-68
2021/07/27 08:58:09;;;;;;;57.03;42.50;;;;;;;;;;5030310;28;20041;-68
2021/07/27 09:00:35;;;;;;;57.22;44.40;;;;;;;;;;5026346;28;20072;-68
2021/07/27 09:03:09;;;;;;;61.13;45.55;;;;;;;;;;5023821;28;20045;-68
2021/07/27 09:05:35;;;;;;;58.13;45.60;;;;;;;;;;5016954;28;20049;-68
2021/07/27 09:08:02;;;;;;;66.10;48.00;;;;;;;;;;5021707;28;20436;-68
2021/07/27 09:10:30;;;;;;;65.72;48.88;;;;;;;;;;5022754;28;20132;-68
2021/07/27 09:12:58;;;;;;;64.95;49.92;;;;;;;;;;5020686;28;20064;-68
2021/07/27 09:15:26;;;;;;;67.05;46.60;;;;;;;;;;5017709;28;20072;-68
2021/07/27 09:18:00;;;;;;;58.17;45.42;;;;;;;;;;5024017;28;20038;-68
2021/07/27 09:20:26;;;;;;;;;;;;;;;;;;5022487;28;20044;-68
2021/07/27 09:22:52;;;;;;;62.85;44.53;;;;;;;;;;5016061;28;20338;-68
2021/07/27 09:25:19;;;;;;;56.88;41.00;;;;;;;;;;5025780;28;20050;-68
2021/07/27 09:27:45;;;;;;;50.28;40.85;;;;;;;;;;5013132;28;20050;-68
2021/07/27 09:30:22;;;;;;;53.72;42.45;;;;;;;;;;5021865;28;20084;-68
2021/07/27 09:32:48;;;;;;;48.10;39.00;;;;;;;;;;5022180;28;20046;-68
2021/07/27 09:35:14;;;;;;;45.78;38.15;;;;;;;;;;5019481;28;20258;-68
2021/07/27 09:37:40;;;;;;;47.75;37.28;;;;;;;;;;5023281;28;20041;-68
2021/07/27 09:40:07;;;;;;;44.63;35.65;;;;;;;;;;5025527;28;20132;-68
2021/07/27 09:42:36;;;;;;;44.97;35.40;;;;;;;;;;5019760;28;20042;-68
2021/07/27 09:45:04;;;;;;;47.83;35.28;;;;;;;;;;5016802;28;20052;-68
2021/07/27 09:47:30;;;;;;;44.25;33.88;;;;;;;;;;5021944;28;20065;-68
2021/07/27 09:49:57;;;;;;;43.20;32.25;;;;;;;;;;5022223;28;20064;-68
2021/07/27 09:52:23;;;;;;;43.40;33.15;;;;;;;;;;5021515;28;20041;-68
2021/07/27 09:54:50;;;;;;;44.78;33.60;;;;;;;;;;5023357;28;20077;-68
2021/07/27 09:57:16;;;;;;;38.78;32.08;;;;;;;;;;5025386;28;20118;-69
2021/07/27 09:59:48;;;;;;;40.08;32.60;;;;;;;;;;5028247;28;20073;-68
2021/07/27 10:02:16;;;;;;;41.78;32.75;;;;;;;;;;5023864;28;20042;-68
2021/07/27 10:04:46;;;;;;;36.70;30.00;;;;;;;;;;5041801;28;20063;-68
2021/07/27 10:07:12;;;;;;;37.65;30.23;;;;;;;;;;5025018;28;20045;-69
2021/07/27 10:09:39;;;;;;;36.80;29.95;;;;;;;;;;5022912;28;20053;-68
2021/07/27 10:12:07;;;;;;;38.80;31.48;;;;;;;;;;5029476;28;20038;-69
2021/07/27 10:14:40;;;;;;;38.08;30.20;;;;;;;;;;5020688;28;20107;-68
2021/07/27 10:17:08;;;;;;;34.70;28.63;;;;;;;;;;5023334;28;20045;-68
2021/07/27 10:19:40;;;;;;;40.35;30.50;;;;;;;;;;5026800;28;20057;-68
2021/07/27 10:22:07;;;;;;;37.17;30.20;;;;;;;;;;5020972;28;20454;-68
2021/07/27 10:24:35;;;;;;;38.30;31.45;;;;;;;;;;5027564;28;20107;-68
2021/07/27 10:27:09;;;;;;;39.35;32.72;;;;;;;;;;5025277;28;20043;-69
2021/07/27 10:29:35;;;;;;;41.88;32.22;;;;;;;;;;5023542;28;20095;-68
2021/07/27 10:32:12;;;;;;;41.10;31.33;;;;;;;;;;5026429;28;20069;-68
2021/07/27 10:34:40;;;;;;;42.53;31.80;;;;;;;;;;5027843;28;20042;-68
2021/07/27 10:37:09;;;;;;;37.30;30.38;;;;;;;;;;5027027;28;20045;-69
2021/07/27 10:39:46;;;;;;;38.33;33.00;;;;;;;;;;5026173;28;20057;-68
2021/07/27 10:42:12;;;;;;;41.17;32.08;;;;;;;;;;5022808;28;20069;-68
2021/07/27 10:44:39;;;;;;;36.72;31.40;;;;;;;;;;5026687;28;20041;-68
2021/07/27 10:47:05;;;;;;;39.03;32.33;;;;;;;;;;5018966;28;20042;-69
2021/07/27 10:49:31;;;;;;;42.05;33.35;;;;;;;;;;5030450;28;20077;-68
2021/07/27 10:51:59;;;;;;;44.25;32.88;;;;;;;;;;5027357;28;20452;-68
2021/07/27 10:54:27;;;;;;;40.28;32.30;;;;;;;;;;5024139;28;20477;-69
2021/07/27 10:57:02;;;;;;;37.75;32.15;;;;;;;;;;5018707;28;20119;-68
2021/07/27 10:59:31;;;;;;;38.10;31.13;;;;;;;;;;5026137;28;20379;-68
2021/07/27 11:01:57;;;;;;;37.70;31.17;;;;;;;;;;5024422;28;20042;-68
2021/07/27 11:04:30;;;;;;;35.80;29.60;;;;;;;;;;5023535;28;20426;-68
2021/07/27 11:07:13;;;;;;;38.20;31.00;;;;;;;;;;5017935;28;20335;-68
2021/07/27 11:09:53;;;;;;;37.47;31.02;;;;;;;;;;5023847;28;20474;-68
2021/07/27 11:12:26;;;;;;;36.97;28.50;;;;;;;;;;5024264;28;20144;-70
2021/07/27 11:15:06;;;;;;;30.65;26.10;;;;;;;;;;5021641;28;20461;-75
2021/07/27 11:17:32;;;;;;;37.67;28.88;;;;;;;;;;5027991;28;20068;-70
2021/07/27 11:19:59;;;;;;;32.28;23.42;;;;;;;;;;5026702;28;20481;-79
2021/07/27 11:22:26;;;;;;;27.50;21.60;;;;;;;;;;5019361;28;20045;-68
2021/07/27 11:24:54;;;;;;;30.27;22.35;;;;;;;;;;5022763;28;20049;-69
2021/07/27 11:27:27;;;;;;;26.70;22.08;;;;;;;;;;5020284;28;20108;-69
2021/07/27 11:30:01;;;;;;;23.27;19.73;;;;;;;;;;5025555;28;20477;-69
2021/07/27 11:32:37;;;;;;;21.45;18.75;;;;;;;;;;5028940;28;20061;-69
2021/07/27 11:35:04;;;;;;;25.58;19.55;;;;;;;;;;5022327;28;20071;-69
2021/07/27 11:37:30;;;;;;;23.77;19.80;;;;;;;;;;5017410;28;20121;-69
2021/07/27 11:39:56;;;;;;;22.98;17.98;;;;;;;;;;5025339;28;20115;-69
2021/07/27 11:42:30;;;;;;;23.35;19.33;;;;;;;;;;5025828;28;20049;-70
2021/07/27 11:44:57;;;;;;;22.73;18.67;;;;;;;;;;5024864;28;20045;-69
2021/07/27 11:47:24;;;;;;;23.95;19.15;;;;;;;;;;5025458;28;20042;-69
2021/07/27 11:49:54;;;;;;;24.83;20.15;;;;;;;;;;5020790;28;20050;-70
2021/07/27 11:52:26;;;;;;;23.02;19.25;;;;;;;;;;5018225;28;20046;-69
2021/07/27 11:55:02;;;;;;;24.67;20.60;;;;;;;;;;5019922;28;20049;-69
2021/07/27 11:57:29;;;;;;;26.45;21.60;;;;;;;;;;5017370;28;20045;-69
2021/07/27 12:00:06;;;;;;;27.38;21.45;;;;;;;;;;5020230;28;20099;-70
2021/07/27 12:02:32;;;;;;;28.08;22.58;;;;;;;;;;5018280;28;20506;-70
2021/07/27 12:05:00;;;;;;;26.65;21.50;;;;;;;;;;5024533;28;20042;-69
2021/07/27 12:07:27;;;;;;;25.20;20.63;;;;;;;;;;5018504;28;20153;-69
2021/07/27 12:09:53;;;;;;;23.98;20.45;;;;;;;;;;5021506;28;20181;-70
2021/07/27 12:12:19;;;;;;;24.75;21.33;;;;;;;;;;5019096;28;20084;-70
2021/07/27 12:14:45;;;;;;;29.58;25.20;;;;;;;;;;5021220;28;20528;-70
2021/07/27 12:17:11;;;;;;;27.00;23.88;;;;;;;;;;5017575;28;20046;-70
2021/07/27 12:19:38;;;;;;;32.35;25.83;;;;;;;;;;5021519;28;20049;-70
2021/07/27 12:22:04;;;;;;;26.92;23.92;;;;;;;;;;5022397;28;20167;-70
2021/07/27 12:24:30;;;;;;;34.95;25.65;;;;;;;;;;5021667;28;20128;-70
2021/07/27 12:26:59;;;;;;;24.23;21.63;;;;;;;;;;5024504;28;20433;-86
2021/07/27 12:29:25;;;;;;;26.58;23.05;;;;;;;;;;5024665;28;20144;-70
2021/07/27 12:31:51;;;;;;;24.35;21.77;;;;;;;;;;5021923;28;20037;-69
2021/07/27 12:34:17;;;;;;;24.10;20.20;;;;;;;;;;5020322;28;20041;-70
2021/07/27 12:36:43;;;;;;;22.52;20.08;;;;;;;;;;5020753;28;20050;-78
2021/07/27 12:39:10;;;;;;;25.25;22.33;;;;;;;;;;5020091;28;20143;-69
2021/07/27 12:41:36;;;;;;;26.70;23.08;;;;;;;;;;5024001;28;20076;-69
2021/07/27 12:44:02;;;;;;;25.95;21.80;;;;;;;;;;5018723;28;20050;-69
2021/07/27 12:46:28;;;;;;;25.13;21.95;;;;;;;;;;5024294;28;20464;-69
2021/07/27 12:48:54;;;;;;;30.77;22.45;;;;;;;;;;5023390;28;20053;-69
2021/07/27 12:51:21;;;;;;;27.85;22.27;;;;;;;;;;5026865;28;20034;-68
2021/07/27 12:53:48;;;;;;;29.38;22.60;;;;;;;;;;5018181;28;20046;-68
2021/07/27 12:56:15;;;;;;;25.75;22.10;;;;;;;;;;5023159;28;20065;-69
2021/07/27 12:58:41;;;;;;;27.65;21.40;;;;;;;;;;5025797;28;20057;-68
2021/07/27 13:01:08;;;;;;;26.67;22.88;;;;;;;;;;5024182;28;20129;-68
2021/07/27 13:03:34;;;;;;;26.75;23.38;;;;;;;;;;5021851;28;20049;-69
2021/07/27 13:06:00;;;;;;;32.70;24.70;;;;;;;;;;5023871;28;20439;-69
2021/07/27 13:08:26;;;;;;;29.40;23.80;;;;;;;;;;5023122;28;20080;-68
2021/07/27 13:10:52;;;;;;;28.33;22.75;;;;;;;;;;5021939;28;20045;-69
2021/07/27 13:13:19;;;;;;;26.17;21.35;;;;;;;;;;5024320;28;20136;-68
2021/07/27 13:15:46;;;;;;;25.98;21.98;;;;;;;;;;5017806;28;20144;-68
2021/07/27 13:18:15;;;;;;;27.77;22.27;;;;;;;;;;5023244;28;20060;-68
2021/07/27 13:20:42;;;;;;;25.88;21.90;;;;;;;;;;5025503;28;20053;-69
2021/07/27 13:23:08;;;;;;;24.52;21.88;;;;;;;;;;5022290;28;20053;-69
2021/07/27 13:25:34;;;;;;;27.08;20.35;;;;;;;;;;5022217;28;20461;-69
2021/07/27 13:28:00;;;;;;;26.70;20.02;;;;;;;;;;5016991;28;20068;-69
2021/07/27 13:30:26;;;;;;;25.77;20.92;;;;;;;;;;5023913;28;20144;-69
2021/07/27 13:32:54;;;;;;;23.25;20.70;;;;;;;;;;5026596;28;20038;-69
2021/07/27 13:35:20;;;;;;;22.10;19.80;;;;;;;;;;5021953;28;20505;-69
2021/07/27 13:37:46;;;;;;;21.38;18.85;;;;;;;;;;5025126;28;20096;-69
2021/07/27 13:40:13;;;;;;;23.33;18.90;;;;;;;;;;5020877;28;20112;-69
2021/07/27 13:42:39;;;;;;;21.45;18.73;;;;;;;;;;5032014;28;20415;-69
2021/07/27 13:45:06;;;;;;;22.95;19.25;;;;;;;;;;5030658;28;20065;-69
2021/07/27 13:47:33;;;;;;;24.65;18.88;;;;;;;;;;5031361;28;20050;-69
2021/07/27 13:50:01;;;;;;;21.60;19.08;;;;;;;;;;5026385;28;20158;-69
2021/07/27 13:52:27;;;;;;;22.13;19.67;;;;;;;;;;5024101;28;20038;-69
2021/07/27 13:54:53;;;;;;;24.77;18.50;;;;;;;;;;5024577;28;20473;-69
2021/07/27 13:57:20;;;;;;;25.50;19.50;;;;;;;;;;5029824;28;20157;-69
2021/07/27 13:59:49;;;;;;;21.45;18.70;;;;;;;;;;5025154;28;20049;-69
2021/07/27 14:02:16;;;;;;;21.42;19.15;;;;;;;;;;5026310;28;20045;-69
2021/07/27 14:04:42;;;;;;;23.20;19.98;;;;;;;;;;5023908;28;20045;-68
2021/07/27 14:07:10;;;;;;;24.52;19.88;;;;;;;;;;5027097;28;20052;-68
2021/07/27 14:09:36;;;;;;;29.13;20.55;;;;;;;;;;5023825;28;20056;-68
2021/07/27 14:12:03;;;;;;;21.88;18.73;;;;;;;;;;5021314;28;20470;-68
2021/07/27 14:14:29;;;;;;;23.23;18.35;;;;;;;;;;5024425;28;20374;-68
2021/07/27 14:16:55;;;;;;;22.58;18.40;;;;;;;;;;5024741;28;20127;-68
2021/07/27 14:19:22;;;;;;;22.92;19.98;;;;;;;;;;5038053;28;20134;-68
2021/07/27 14:21:48;;;;;;;23.52;20.08;;;;;;;;;;5018881;28;20045;-68
2021/07/27 14:24:16;;;;;;;26.08;21.58;;;;;;;;;;5022763;28;20045;-68
2021/07/27 14:26:43;;;;;;;27.70;21.05;;;;;;;;;;5024421;28;20058;-68
2021/07/27 14:29:09;;;;;;;27.77;21.55;;;;;;;;;;5028797;28;20073;-68
2021/07/27 14:31:35;;;;;;;24.55;21.13;;;;;;;;;;5020320;28;20037;-68
2021/07/27 14:34:02;;;;;;;24.30;20.67;;;;;;;;;;5021554;28;20159;-68
2021/07/27 14:36:28;;;;;;;23.00;20.15;;;;;;;;;;5027754;28;20041;-68